sensor_id;sensor_type;location;lat;lon;timestamp;pressure;altitude;pressure_sealevel;temperature;humidity
74163;BME280;62515;52.758;5.076;2022-10-31T00:00:48;102110.38;;;11.79;100.00
74163;BME280;62515;52.758;5.076;2022-10-31T00:03:16;102113.13;;;11.77;100.00
74163;BME280;62515;52.758;5.076;2022-10-31T00:05:45;102120.44;;;11.74;100.00
74163;BME280;62515;52.758;5.076;2022-10-31T00:08:12;102115.69;;;11.63;100.00
74163;BME280;62515;52.758;5.076;2022-10-31T00:10:39;102116.38;;;11.67;100.00
74163;BME280;62515;52.758;5.076;2022-10-31T00:13:07;102117.50;;;11.63;100.00
74163;BME280;62515;52.758;5.076;2022-10-31T00:15:34;102125.56;;;11.61;100.00
74163;BME280;62515;52.758;5.076;2022-10-31T00:18:03;102108.88;;;11.57;100.00
74163;BME280;62515;52.758;5.076;2022-10-31T00:20:30;102121.03;;;11.63;100.00
74163;BME280;62515;52.758;5.076;2022-10-31T00:22:58;102113.19;;;11.60;100.00
74163;BME280;62515;52.758;5.076;2022-10-31T00:25:26;102121.09;;;11.62;100.00
74163;BME280;62515;52.758;5.076;2022-10-31T00:27:53;102117.75;;;11.58;100.00
74163;BME280;62515;52.758;5.076;2022-10-31T00:30:21;102121.19;;;11.60;100.00
74163;BME280;62515;52.758;5.076;2022-10-31T00:32:47;102124.81;;;11.59;100.00
74163;BME280;62515;52.758;5.076;2022-10-31T00:35:16;102123.25;;;11.55;100.00
74163;BME280;62515;52.758;5.076;2022-10-31T00:37:44;102119.81;;;11.53;100.00
74163;BME280;62515;52.758;5.076;2022-10-31T00:40:11;102125.31;;;11.50;100.00
74163;BME280;62515;52.758;5.076;2022-10-31T00:42:39;102112.06;;;11.48;100.00
74163;BME280;62515;52.758;5.076;2022-10-31T00:45:06;102125.50;;;11.47;100.00
74163;BME280;62515;52.758;5.076;2022-10-31T00:47:33;102115.34;;;11.38;100.00
74163;BME280;62515;52.758;5.076;2022-10-31T00:50:00;102125.66;;;11.44;100.00
74163;BME280;62515;52.758;5.076;2022-10-31T00:52:29;102115.16;;;11.41;100.00
74163;BME280;62515;52.758;5.076;2022-10-31T00:54:56;102127.28;;;11.46;100.00
74163;BME280;62515;52.758;5.076;2022-10-31T00:57:23;102123.69;;;11.47;100.00
74163;BME280;62515;52.758;5.076;2022-10-31T00:59:50;102122.03;;;11.45;100.00
74163;BME280;62515;52.758;5.076;2022-10-31T01:02:17;102113.44;;;11.40;100.00
74163;BME280;62515;52.758;5.076;2022-10-31T01:04:44;102127.00;;;11.51;100.00
74163;BME280;62515;52.758;5.076;2022-10-31T01:07:12;102126.50;;;11.44;100.00
74163;BME280;62515;52.758;5.076;2022-10-31T01:09:42;102130.81;;;11.47;100.00
74163;BME280;62515;52.758;5.076;2022-10-31T01:12:09;102134.41;;;11.46;100.00
74163;BME280;62515;52.758;5.076;2022-10-31T01:14:38;102125.50;;;11.47;100.00
74163;BME280;62515;52.758;5.076;2022-10-31T01:17:05;102109.53;;;11.30;100.00
74163;BME280;62515;52.758;5.076;2022-10-31T01:19:32;102133.72;;;11.42;100.00
74163;BME280;62515;52.758;5.076;2022-10-31T01:21:59;102133.56;;;11.45;100.00
74163;BME280;62515;52.758;5.076;2022-10-31T01:24:28;102139.06;;;11.42;100.00
74163;BME280;62515;52.758;5.076;2022-10-31T01:26:56;102147.16;;;11.41;100.00
74163;BME280;62515;52.758;5.076;2022-10-31T01:29:23;102138.19;;;11.42;100.00
74163;BME280;62515;52.758;5.076;2022-10-31T01:31:50;102132.09;;;11.40;100.00
74163;BME280;62515;52.758;5.076;2022-10-31T01:34:17;102131.31;;;11.38;100.00
74163;BME280;62515;52.758;5.076;2022-10-31T01:36:44;102125.31;;;11.34;100.00
74163;BME280;62515;52.758;5.076;2022-10-31T01:39:14;102134.28;;;11.32;100.00
74163;BME280;62515;52.758;5.076;2022-10-31T01:41:43;102137.13;;;11.29;100.00
74163;BME280;62515;52.758;5.076;2022-10-31T01:47:17;102105.38;;;11.09;100.00
74163;BME280;62515;52.758;5.076;2022-10-31T01:49:47;102135.72;;;11.22;100.00
74163;BME280;62515;52.758;5.076;2022-10-31T01:52:20;102128.00;;;11.17;100.00
74163;BME280;62515;52.758;5.076;2022-10-31T01:54:52;102132.03;;;11.09;100.00
74163;BME280;62515;52.758;5.076;2022-10-31T01:57:20;102126.00;;;11.05;100.00
74163;BME280;62515;52.758;5.076;2022-10-31T01:59:54;102123.03;;;10.94;100.00
74163;BME280;62515;52.758;5.076;2022-10-31T02:02:24;102130.16;;;10.93;100.00
74163;BME280;62515;52.758;5.076;2022-10-31T02:04:53;102112.66;;;10.72;100.00
74163;BME280;62515;52.758;5.076;2022-10-31T02:07:25;102129.16;;;10.62;100.00
74163;BME280;62515;52.758;5.076;2022-10-31T02:09:58;102131.50;;;10.50;100.00
74163;BME280;62515;52.758;5.076;2022-10-31T02:12:26;102135.56;;;10.40;100.00
74163;BME280;62515;52.758;5.076;2022-10-31T02:14:58;102127.22;;;10.48;100.00
74163;BME280;62515;52.758;5.076;2022-10-31T02:17:28;102120.25;;;10.45;100.00
74163;BME280;62515;52.758;5.076;2022-10-31T02:20:03;102128.78;;;10.52;100.00
74163;BME280;62515;52.758;5.076;2022-10-31T02:22:40;102127.84;;;10.36;100.00
74163;BME280;62515;52.758;5.076;2022-10-31T02:25:26;102138.06;;;10.26;100.00
74163;BME280;62515;52.758;5.076;2022-10-31T02:28:14;102129.84;;;10.14;100.00
74163;BME280;62515;52.758;5.076;2022-10-31T02:31:00;102116.81;;;10.08;100.00
74163;BME280;62515;52.758;5.076;2022-10-31T02:33:34;102122.00;;;10.11;100.00
74163;BME280;62515;52.758;5.076;2022-10-31T02:36:10;102121.28;;;10.07;100.00
74163;BME280;62515;52.758;5.076;2022-10-31T02:38:47;102126.44;;;10.10;100.00
74163;BME280;62515;52.758;5.076;2022-10-31T02:41:34;102126.88;;;10.20;100.00
74163;BME280;62515;52.758;5.076;2022-10-31T02:44:15;102129.72;;;10.34;100.00
74163;BME280;62515;52.758;5.076;2022-10-31T02:46:48;102116.00;;;10.41;100.00
74163;BME280;62515;52.758;5.076;2022-10-31T02:49:22;102123.53;;;10.50;100.00
74163;BME280;62515;52.758;5.076;2022-10-31T02:51:51;102126.66;;;10.59;100.00
74163;BME280;62515;52.758;5.076;2022-10-31T02:54:21;102124.78;;;10.61;100.00
74163;BME280;62515;52.758;5.076;2022-10-31T02:56:54;102120.16;;;10.64;100.00
74163;BME280;62515;52.758;5.076;2022-10-31T02:59:23;102131.63;;;10.66;100.00
74163;BME280;62515;52.758;5.076;2022-10-31T03:02:06;102130.75;;;10.66;100.00
74163;BME280;62515;52.758;5.076;2022-10-31T03:04:56;102125.47;;;10.64;100.00
74163;BME280;62515;52.758;5.076;2022-10-31T03:07:30;102129.72;;;10.68;100.00
74163;BME280;62515;52.758;5.076;2022-10-31T03:10:04;102126.28;;;10.66;100.00
74163;BME280;62515;52.758;5.076;2022-10-31T03:12:43;102118.38;;;10.65;100.00
74163;BME280;62515;52.758;5.076;2022-10-31T03:15:19;102128.16;;;10.64;100.00
74163;BME280;62515;52.758;5.076;2022-10-31T03:17:54;102126.41;;;10.63;100.00
74163;BME280;62515;52.758;5.076;2022-10-31T03:20:27;102108.34;;;10.53;100.00
74163;BME280;62515;52.758;5.076;2022-10-31T03:22:57;102126.41;;;10.63;100.00
74163;BME280;62515;52.758;5.076;2022-10-31T03:25:26;102115.25;;;10.57;100.00
74163;BME280;62515;52.758;5.076;2022-10-31T03:27:55;102125.41;;;10.66;100.00
74163;BME280;62515;52.758;5.076;2022-10-31T03:30:23;102115.75;;;10.63;100.00
74163;BME280;62515;52.758;5.076;2022-10-31T03:32:59;102127.06;;;10.68;100.00
74163;BME280;62515;52.758;5.076;2022-10-31T03:35:30;102132.16;;;10.73;100.00
74163;BME280;62515;52.758;5.076;2022-10-31T03:38:02;102117.13;;;10.72;100.00
74163;BME280;62515;52.758;5.076;2022-10-31T03:40:35;102127.50;;;10.76;100.00
74163;BME280;62515;52.758;5.076;2022-10-31T03:43:09;102133.63;;;10.78;100.00
74163;BME280;62515;52.758;5.076;2022-10-31T03:45:41;102117.34;;;10.67;100.00
74163;BME280;62515;52.758;5.076;2022-10-31T03:48:12;102130.16;;;10.76;100.00
74163;BME280;62515;52.758;5.076;2022-10-31T03:50:45;102132.16;;;10.73;100.00
74163;BME280;62515;52.758;5.076;2022-10-31T03:53:19;102121.63;;;10.70;100.00
74163;BME280;62515;52.758;5.076;2022-10-31T03:55:52;102128.78;;;10.69;100.00
74163;BME280;62515;52.758;5.076;2022-10-31T03:58:25;102116.63;;;10.64;100.00
74163;BME280;62515;52.758;5.076;2022-10-31T04:00:55;102122.59;;;10.52;100.00
74163;BME280;62515;52.758;5.076;2022-10-31T04:03:27;102132.13;;;10.38;100.00
74163;BME280;62515;52.758;5.076;2022-10-31T04:05:59;102129.44;;;10.21;100.00
74163;BME280;62515;52.758;5.076;2022-10-31T04:08:30;102117.91;;;10.04;100.00
74163;BME280;62515;52.758;5.076;2022-10-31T04:11:00;102128.91;;;9.96;100.00
74163;BME280;62515;52.758;5.076;2022-10-31T04:13:32;102130.22;;;9.87;100.00
74163;BME280;62515;52.758;5.076;2022-10-31T04:16:07;102137.63;;;9.81;100.00
74163;BME280;62515;52.758;5.076;2022-10-31T04:18:43;102136.91;;;9.77;100.00
74163;BME280;62515;52.758;5.076;2022-10-31T04:21:10;102143.28;;;9.73;100.00
74163;BME280;62515;52.758;5.076;2022-10-31T04:23:37;102136.41;;;9.69;100.00
74163;BME280;62515;52.758;5.076;2022-10-31T04:26:14;102143.66;;;9.66;100.00
74163;BME280;62515;52.758;5.076;2022-10-31T04:28:43;102133.81;;;9.68;100.00
74163;BME280;62515;52.758;5.076;2022-10-31T04:31:11;102124.63;;;9.75;100.00
74163;BME280;62515;52.758;5.076;2022-10-31T04:33:39;102128.56;;;9.66;100.00
74163;BME280;62515;52.758;5.076;2022-10-31T04:36:08;102123.63;;;9.59;100.00
74163;BME280;62515;52.758;5.076;2022-10-31T04:38:36;102131.09;;;9.51;100.00
74163;BME280;62515;52.758;5.076;2022-10-31T04:41:11;102129.78;;;9.40;100.00
74163;BME280;62515;52.758;5.076;2022-10-31T04:43:51;102135.19;;;9.39;100.00
74163;BME280;62515;52.758;5.076;2022-10-31T04:46:18;102128.47;;;9.30;100.00
74163;BME280;62515;52.758;5.076;2022-10-31T04:48:46;102130.94;;;9.35;100.00
74163;BME280;62515;52.758;5.076;2022-10-31T04:51:14;102134.81;;;9.28;100.00
74163;BME280;62515;52.758;5.076;2022-10-31T04:53:41;102139.34;;;9.26;100.00
74163;BME280;62515;52.758;5.076;2022-10-31T04:56:31;102142.88;;;9.26;100.00
74163;BME280;62515;52.758;5.076;2022-10-31T04:59:00;102143.84;;;9.24;100.00
74163;BME280;62515;52.758;5.076;2022-10-31T05:01:35;102139.81;;;9.15;100.00
74163;BME280;62515;52.758;5.076;2022-10-31T05:04:03;102139.22;;;9.09;100.00
74163;BME280;62515;52.758;5.076;2022-10-31T05:06:32;102133.13;;;9.07;100.00
74163;BME280;62515;52.758;5.076;2022-10-31T05:08:59;102140.50;;;9.00;100.00
74163;BME280;62515;52.758;5.076;2022-10-31T05:11:27;102139.78;;;8.97;100.00
74163;BME280;62515;52.758;5.076;2022-10-31T05:14:00;102138.19;;;8.92;100.00
74163;BME280;62515;52.758;5.076;2022-10-31T05:16:56;102136.88;;;8.82;100.00
74163;BME280;62515;52.758;5.076;2022-10-31T05:19:41;102149.34;;;8.80;100.00
74163;BME280;62515;52.758;5.076;2022-10-31T05:22:43;102137.00;;;8.79;100.00
74163;BME280;62515;52.758;5.076;2022-10-31T05:25:10;102122.81;;;8.80;100.00
74163;BME280;62515;52.758;5.076;2022-10-31T05:27:39;102122.59;;;8.85;100.00
74163;BME280;62515;52.758;5.076;2022-10-31T05:30:06;102119.19;;;8.81;100.00
74163;BME280;62515;52.758;5.076;2022-10-31T05:32:37;102115.50;;;8.85;100.00
74163;BME280;62515;52.758;5.076;2022-10-31T05:35:24;102118.09;;;8.87;100.00
74163;BME280;62515;52.758;5.076;2022-10-31T05:38:26;102116.34;;;8.86;100.00
74163;BME280;62515;52.758;5.076;2022-10-31T05:40:55;102113.06;;;8.81;100.00
74163;BME280;62515;52.758;5.076;2022-10-31T05:43:30;102108.81;;;8.77;100.00
74163;BME280;62515;52.758;5.076;2022-10-31T05:45:57;102107.41;;;8.68;100.00
74163;BME280;62515;52.758;5.076;2022-10-31T05:48:43;102110.44;;;8.59;100.00
74163;BME280;62515;52.758;5.076;2022-10-31T05:51:42;102110.66;;;8.55;100.00
74163;BME280;62515;52.758;5.076;2022-10-31T05:54:10;102111.50;;;8.55;100.00
74163;BME280;62515;52.758;5.076;2022-10-31T05:56:43;102105.41;;;8.53;100.00
74163;BME280;62515;52.758;5.076;2022-10-31T05:59:10;102108.19;;;8.50;100.00
74163;BME280;62515;52.758;5.076;2022-10-31T06:01:38;102094.53;;;8.39;100.00
74163;BME280;62515;52.758;5.076;2022-10-31T06:04:13;102087.78;;;8.32;100.00
74163;BME280;62515;52.758;5.076;2022-10-31T06:06:41;102095.19;;;8.44;100.00
74163;BME280;62515;52.758;5.076;2022-10-31T06:09:10;102091.88;;;8.59;100.00
74163;BME280;62515;52.758;5.076;2022-10-31T06:11:37;102098.50;;;8.69;100.00
74163;BME280;62515;52.758;5.076;2022-10-31T06:14:04;102098.31;;;8.74;100.00
74163;BME280;62515;52.758;5.076;2022-10-31T06:16:51;102083.66;;;8.65;100.00
74163;BME280;62515;52.758;5.076;2022-10-31T06:19:38;102094.00;;;8.71;100.00
74163;BME280;62515;52.758;5.076;2022-10-31T06:22:10;102089.16;;;8.61;100.00
74163;BME280;62515;52.758;5.076;2022-10-31T06:24:44;102099.44;;;8.68;100.00
74163;BME280;62515;52.758;5.076;2022-10-31T06:27:26;102044.47;;;8.31;100.00
74163;BME280;62515;52.758;5.076;2022-10-31T06:30:01;102102.50;;;8.59;100.00
74163;BME280;62515;52.758;5.076;2022-10-31T06:32:30;102100.72;;;8.60;100.00
74163;BME280;62515;52.758;5.076;2022-10-31T06:34:57;102085.97;;;8.53;100.00
74163;BME280;62515;52.758;5.076;2022-10-31T06:37:27;102091.16;;;8.56;100.00
74163;BME280;62515;52.758;5.076;2022-10-31T06:40:03;102099.78;;;8.61;100.00
74163;BME280;62515;52.758;5.076;2022-10-31T06:42:40;102100.53;;;8.64;100.00
74163;BME280;62515;52.758;5.076;2022-10-31T06:45:09;102095.81;;;8.71;100.00
74163;BME280;62515;52.758;5.076;2022-10-31T06:47:56;102103.53;;;8.75;100.00
74163;BME280;62515;52.758;5.076;2022-10-31T06:51:02;102106.75;;;8.83;100.00
74163;BME280;62515;52.758;5.076;2022-10-31T06:53:30;102098.69;;;8.85;100.00
74163;BME280;62515;52.758;5.076;2022-10-31T06:56:00;102102.88;;;8.90;100.00
74163;BME280;62515;52.758;5.076;2022-10-31T06:58:29;102090.69;;;8.86;100.00
74163;BME280;62515;52.758;5.076;2022-10-31T07:01:14;102109.91;;;8.91;100.00
74163;BME280;62515;52.758;5.076;2022-10-31T07:03:47;102065.16;;;8.64;100.00
74163;BME280;62515;52.758;5.076;2022-10-31T07:06:14;102117.09;;;8.89;100.00
74163;BME280;62515;52.758;5.076;2022-10-31T07:08:41;102114.69;;;8.83;100.00
74163;BME280;62515;52.758;5.076;2022-10-31T07:11:15;102099.56;;;8.85;100.00
74163;BME280;62515;52.758;5.076;2022-10-31T07:13:42;102121.84;;;9.02;100.00
74163;BME280;62515;52.758;5.076;2022-10-31T07:16:09;102132.03;;;9.11;100.00
74163;BME280;62515;52.758;5.076;2022-10-31T07:18:58;102102.78;;;9.12;100.00
74163;BME280;62515;52.758;5.076;2022-10-31T07:21:43;102118.44;;;9.37;100.00
74163;BME280;62515;52.758;5.076;2022-10-31T07:24:27;102102.50;;;9.37;100.00
74163;BME280;62515;52.758;5.076;2022-10-31T07:27:34;102126.56;;;9.53;100.00
74163;BME280;62515;52.758;5.076;2022-10-31T07:30:11;102061.88;;;9.16;100.00
74163;BME280;62515;52.758;5.076;2022-10-31T07:33:02;102053.03;;;9.16;100.00
74163;BME280;62515;52.758;5.076;2022-10-31T07:36:12;102112.03;;;9.60;100.00
74163;BME280;62515;52.758;5.076;2022-10-31T07:38:43;102125.75;;;9.69;100.00
74163;BME280;62515;52.758;5.076;2022-10-31T07:41:23;102124.63;;;9.75;100.00
74163;BME280;62515;52.758;5.076;2022-10-31T07:43:51;102128.84;;;9.79;100.00
74163;BME280;62515;52.758;5.076;2022-10-31T07:46:38;102131.28;;;9.83;100.00
74163;BME280;62515;52.758;5.076;2022-10-31T07:49:34;102128.84;;;9.97;100.00
74163;BME280;62515;52.758;5.076;2022-10-31T07:52:20;102129.97;;;10.11;100.00
74163;BME280;62515;52.758;5.076;2022-10-31T07:54:59;102137.22;;;10.26;100.00
74163;BME280;62515;52.758;5.076;2022-10-31T07:57:31;102129.72;;;10.34;100.00
74163;BME280;62515;52.758;5.076;2022-10-31T08:00:03;102138.56;;;10.52;100.00
74163;BME280;62515;52.758;5.076;2022-10-31T08:02:40;102142.47;;;10.62;100.00
74163;BME280;62515;52.758;5.076;2022-10-31T08:05:26;102131.50;;;10.68;100.00
74163;BME280;62515;52.758;5.076;2022-10-31T08:08:28;102151.25;;;10.81;100.00
74163;BME280;62515;52.758;5.076;2022-10-31T08:11:02;102111.16;;;10.67;100.00
74163;BME280;62515;52.758;5.076;2022-10-31T08:13:29;102148.63;;;10.96;100.00
74163;BME280;62515;52.758;5.076;2022-10-31T08:16:37;102133.13;;;11.05;100.00
74163;BME280;62515;52.758;5.076;2022-10-31T08:19:05;102139.72;;;11.30;100.00
74163;BME280;62515;52.758;5.076;2022-10-31T08:21:36;102141.31;;;11.50;100.00
74163;BME280;62515;52.758;5.076;2022-10-31T08:24:05;102131.53;;;11.66;100.00
74163;BME280;62515;52.758;5.076;2022-10-31T08:27:06;102130.66;;;11.97;100.00
74163;BME280;62515;52.758;5.076;2022-10-31T08:29:38;102084.22;;;11.85;100.00
74163;BME280;62515;52.758;5.076;2022-10-31T08:32:09;102124.13;;;12.18;100.00
74163;BME280;62515;52.758;5.076;2022-10-31T08:34:54;102094.50;;;12.07;100.00
74163;BME280;62515;52.758;5.076;2022-10-31T08:37:57;102086.78;;;12.02;100.00
74163;BME280;62515;52.758;5.076;2022-10-31T08:40:27;102100.19;;;12.17;100.00
74163;BME280;62515;52.758;5.076;2022-10-31T08:42:58;102110.31;;;12.26;100.00
74163;BME280;62515;52.758;5.076;2022-10-31T08:45:25;102125.84;;;12.49;100.00
74163;BME280;62515;52.758;5.076;2022-10-31T08:47:56;102122.09;;;12.67;100.00
74163;BME280;62515;52.758;5.076;2022-10-31T08:50:24;102128.91;;;12.87;100.00
74163;BME280;62515;52.758;5.076;2022-10-31T08:52:51;102130.81;;;12.99;100.00
74163;BME280;62515;52.758;5.076;2022-10-31T08:55:33;102122.94;;;13.12;100.00
74163;BME280;62515;52.758;5.076;2022-10-31T08:58:21;102122.94;;;13.26;100.00
74163;BME280;62515;52.758;5.076;2022-10-31T09:00:54;102123.59;;;13.43;100.00
74163;BME280;62515;52.758;5.076;2022-10-31T09:03:27;102123.66;;;13.70;100.00
74163;BME280;62515;52.758;5.076;2022-10-31T09:05:55;102119.97;;;13.85;100.00
74163;BME280;62515;52.758;5.076;2022-10-31T09:08:22;102119.97;;;13.85;100.00
74163;BME280;62515;52.758;5.076;2022-10-31T09:10:50;102097.94;;;13.82;100.00
74163;BME280;62515;52.758;5.076;2022-10-31T09:13:30;102115.22;;;13.90;100.00
74163;BME280;62515;52.758;5.076;2022-10-31T09:16:17;102104.50;;;13.90;100.00
74163;BME280;62515;52.758;5.076;2022-10-31T09:18:46;102094.66;;;13.91;100.00
74163;BME280;62515;52.758;5.076;2022-10-31T09:21:15;102098.50;;;14.13;100.00
74163;BME280;62515;52.758;5.076;2022-10-31T09:23:42;102094.03;;;14.27;100.00
74163;BME280;62515;52.758;5.076;2022-10-31T09:26:09;102095.84;;;14.53;100.00
74163;BME280;62515;52.758;5.076;2022-10-31T09:28:40;102090.16;;;14.70;98.75
74163;BME280;62515;52.758;5.076;2022-10-31T09:31:09;102085.78;;;14.69;97.21
74163;BME280;62515;52.758;5.076;2022-10-31T09:33:54;102097.16;;;14.73;96.74
74163;BME280;62515;52.758;5.076;2022-10-31T09:36:41;102096.63;;;14.93;96.58
74163;BME280;62515;52.758;5.076;2022-10-31T09:39:17;102095.00;;;15.15;96.16
74163;BME280;62515;52.758;5.076;2022-10-31T09:42:04;102098.00;;;15.24;94.40
74163;BME280;62515;52.758;5.076;2022-10-31T09:44:43;102092.41;;;15.52;94.70
74163;BME280;62515;52.758;5.076;2022-10-31T09:47:28;102083.31;;;15.78;92.30
74163;BME280;62515;52.758;5.076;2022-10-31T09:50:22;102082.63;;;16.11;89.60
74163;BME280;62515;52.758;5.076;2022-10-31T09:52:54;102074.56;;;15.87;90.88
74163;BME280;62515;52.758;5.076;2022-10-31T09:55:30;102078.53;;;15.58;93.42
74163;BME280;62515;52.758;5.076;2022-10-31T09:57:59;102076.97;;;15.30;94.92
74163;BME280;62515;52.758;5.076;2022-10-31T10:00:26;102080.66;;;15.04;95.44
74163;BME280;62515;52.758;5.076;2022-10-31T10:02:56;102071.84;;;14.89;96.75
74163;BME280;62515;52.758;5.076;2022-10-31T10:05:32;102075.81;;;14.84;96.60
74163;BME280;62515;52.758;5.076;2022-10-31T10:08:10;102081.31;;;14.95;96.18
74163;BME280;62515;52.758;5.076;2022-10-31T10:11:13;102083.00;;;15.08;94.96
74163;BME280;62515;52.758;5.076;2022-10-31T10:14:07;102082.78;;;15.11;94.91
74163;BME280;62515;52.758;5.076;2022-10-31T10:16:51;102074.34;;;15.41;93.02
74163;BME280;62515;52.758;5.076;2022-10-31T10:19:34;102071.25;;;15.47;92.18
74163;BME280;62515;52.758;5.076;2022-10-31T10:22:12;102055.72;;;15.27;93.49
74163;BME280;62515;52.758;5.076;2022-10-31T10:24:54;102057.44;;;15.15;94.97
74163;BME280;62515;52.758;5.076;2022-10-31T10:27:29;102057.56;;;15.27;93.76
74163;BME280;62515;52.758;5.076;2022-10-31T10:30:03;102061.25;;;15.62;92.18
74163;BME280;62515;52.758;5.076;2022-10-31T10:32:40;102050.88;;;16.05;92.35
74163;BME280;62515;52.758;5.076;2022-10-31T10:35:20;102044.38;;;17.10;87.31
74163;BME280;62515;52.758;5.076;2022-10-31T10:37:52;102049.38;;;17.48;84.86
74163;BME280;62515;52.758;5.076;2022-10-31T10:40:24;102041.06;;;18.26;83.31
74163;BME280;62515;52.758;5.076;2022-10-31T10:42:59;102038.91;;;18.41;79.47
74163;BME280;62515;52.758;5.076;2022-10-31T10:45:50;102037.63;;;18.03;80.02
74163;BME280;62515;52.758;5.076;2022-10-31T10:48:43;102034.25;;;17.03;84.47
74163;BME280;62515;52.758;5.076;2022-10-31T10:51:20;102031.09;;;16.52;86.23
74163;BME280;62515;52.758;5.076;2022-10-31T10:54:21;102031.34;;;16.03;88.64
74163;BME280;62515;52.758;5.076;2022-10-31T10:56:59;102036.03;;;15.88;91.06
74163;BME280;62515;52.758;5.076;2022-10-31T10:59:30;102025.22;;;15.77;90.59
74163;BME280;62515;52.758;5.076;2022-10-31T11:01:58;102022.44;;;15.42;90.33
74163;BME280;62515;52.758;5.076;2022-10-31T11:04:31;102020.66;;;15.30;92.70
74163;BME280;62515;52.758;5.076;2022-10-31T11:07:00;102011.75;;;15.30;92.65
74163;BME280;62515;52.758;5.076;2022-10-31T11:09:30;102010.66;;;15.32;93.57
74163;BME280;62515;52.758;5.076;2022-10-31T11:11:57;102006.19;;;15.20;92.80
74163;BME280;62515;52.758;5.076;2022-10-31T11:14:25;102009.50;;;15.24;94.22
74163;BME280;62515;52.758;5.076;2022-10-31T11:16:55;102001.41;;;15.36;95.23
74163;BME280;62515;52.758;5.076;2022-10-31T11:19:33;101992.59;;;15.47;95.44
74163;BME280;62515;52.758;5.076;2022-10-31T11:22:05;101991.81;;;15.45;94.58
74163;BME280;62515;52.758;5.076;2022-10-31T11:24:39;101987.91;;;15.38;93.79
74163;BME280;62515;52.758;5.076;2022-10-31T11:27:15;101975.00;;;15.43;94.50
74163;BME280;62515;52.758;5.076;2022-10-31T11:29:41;101963.75;;;15.50;94.21
74163;BME280;62515;52.758;5.076;2022-10-31T11:32:19;101966.53;;;15.49;93.55
74163;BME280;62515;52.758;5.076;2022-10-31T11:34:49;101940.66;;;15.48;93.86
74163;BME280;62515;52.758;5.076;2022-10-31T11:37:19;101960.50;;;15.45;93.37
74163;BME280;62515;52.758;5.076;2022-10-31T11:39:49;101944.75;;;15.41;94.17
74163;BME280;62515;52.758;5.076;2022-10-31T11:42:22;101947.44;;;15.41;95.25
74163;BME280;62515;52.758;5.076;2022-10-31T11:44:51;101933.81;;;15.44;94.40
74163;BME280;62515;52.758;5.076;2022-10-31T11:47:23;101925.41;;;15.48;94.16
74163;BME280;62515;52.758;5.076;2022-10-31T11:49:51;101925.09;;;15.53;95.04
74163;BME280;62515;52.758;5.076;2022-10-31T11:52:21;101912.00;;;15.48;94.42
74163;BME280;62515;52.758;5.076;2022-10-31T11:54:53;101927.31;;;15.59;93.61
74163;BME280;62515;52.758;5.076;2022-10-31T11:57:24;101927.53;;;15.56;94.32
74163;BME280;62515;52.758;5.076;2022-10-31T11:59:51;101923.44;;;15.74;93.91
74163;BME280;62515;52.758;5.076;2022-10-31T12:02:20;101922.56;;;15.97;94.36
74163;BME280;62515;52.758;5.076;2022-10-31T12:04:53;101924.69;;;16.27;91.99
74163;BME280;62515;52.758;5.076;2022-10-31T12:07:22;101912.84;;;16.52;91.18
74163;BME280;62515;52.758;5.076;2022-10-31T12:09:50;101913.16;;;16.71;90.74
74163;BME280;62515;52.758;5.076;2022-10-31T12:12:39;101902.63;;;16.68;90.04
74163;BME280;62515;52.758;5.076;2022-10-31T12:15:31;101910.41;;;16.49;90.18
74163;BME280;62515;52.758;5.076;2022-10-31T12:18:16;101905.06;;;16.38;90.54
74163;BME280;62515;52.758;5.076;2022-10-31T12:20:53;101907.59;;;16.39;91.37
74163;BME280;62515;52.758;5.076;2022-10-31T12:23:28;101898.22;;;16.45;90.15
74163;BME280;62515;52.758;5.076;2022-10-31T12:26:08;101895.53;;;16.45;89.11
74163;BME280;62515;52.758;5.076;2022-10-31T12:28:54;101882.44;;;16.40;90.05
74163;BME280;62515;52.758;5.076;2022-10-31T12:31:35;101883.41;;;16.39;91.37
74163;BME280;62515;52.758;5.076;2022-10-31T12:34:27;101874.75;;;16.36;90.83
74163;BME280;62515;52.758;5.076;2022-10-31T12:37:03;101858.03;;;16.21;90.73
74163;BME280;62515;52.758;5.076;2022-10-31T12:39:43;101854.00;;;16.15;91.91
74163;BME280;62515;52.758;5.076;2022-10-31T12:42:22;101847.53;;;16.18;91.63
74163;BME280;62515;52.758;5.076;2022-10-31T12:48:19;101844.94;;;16.16;92.36
74163;BME280;62515;52.758;5.076;2022-10-31T12:50:54;101843.97;;;16.17;91.76
74163;BME280;62515;52.758;5.076;2022-10-31T12:53:40;101855.44;;;16.19;91.71
74163;BME280;62515;52.758;5.076;2022-10-31T12:56:17;101847.75;;;16.26;91.15
74163;BME280;62515;52.758;5.076;2022-10-31T12:58:54;101850.59;;;16.25;91.32
74163;BME280;62515;52.758;5.076;2022-10-31T13:01:25;101844.59;;;16.21;91.64
74163;BME280;62515;52.758;5.076;2022-10-31T13:03:58;101835.91;;;16.06;91.01
74163;BME280;62515;52.758;5.076;2022-10-31T13:06:29;101829.47;;;16.09;91.82
74163;BME280;62515;52.758;5.076;2022-10-31T13:09:00;101824.47;;;16.15;90.64
74163;BME280;62515;52.758;5.076;2022-10-31T13:11:33;101817.47;;;16.13;92.02
74163;BME280;62515;52.758;5.076;2022-10-31T13:14:07;101810.53;;;16.21;91.44
74163;BME280;62515;52.758;5.076;2022-10-31T13:16:39;101805.88;;;16.23;90.70
74163;BME280;62515;52.758;5.076;2022-10-31T13:19:10;101801.28;;;16.26;91.02
74163;BME280;62515;52.758;5.076;2022-10-31T13:21:44;101793.44;;;16.11;92.07
74163;BME280;62515;52.758;5.076;2022-10-31T13:24:19;101795.28;;;16.11;91.53
74163;BME280;62515;52.758;5.076;2022-10-31T13:26:50;101785.03;;;16.05;91.75
74163;BME280;62515;52.758;5.076;2022-10-31T13:29:24;101784.41;;;16.01;91.36